sensor_id;sensor_type;location;lat;lon;timestamp;P1;durP1;ratioP1;P2;durP2;ratioP2
46551;SDS011;32278;51.810;4.712;2024-02-04T00:02:17;75.00;;;19.75;;
46551;SDS011;32278;51.810;4.712;2024-02-04T00:04:45;74.07;;;20.63;;
46551;SDS011;32278;51.810;4.712;2024-02-04T00:07:11;72.03;;;20.10;;
46551;SDS011;32278;51.810;4.712;2024-02-04T00:09:37;69.00;;;20.75;;
46551;SDS011;32278;51.810;4.712;2024-02-04T00:12:03;78.82;;;22.15;;
46551;SDS011;32278;51.810;4.712;2024-02-04T00:14:31;77.45;;;22.90;;
46551;SDS011;32278;51.810;4.712;2024-02-04T00:16:57;79.43;;;22.70;;
46551;SDS011;32278;51.810;4.712;2024-02-04T00:19:24;80.07;;;22.23;;
46551;SDS011;32278;51.810;4.712;2024-02-04T00:21:50;77.75;;;23.85;;
46551;SDS011;32278;51.810;4.712;2024-02-04T00:24:16;88.28;;;24.58;;
46551;SDS011;32278;51.810;4.712;2024-02-04T00:26:43;78.28;;;23.60;;
46551;SDS011;32278;51.810;4.712;2024-02-04T00:29:09;74.95;;;24.88;;
46551;SDS011;32278;51.810;4.712;2024-02-04T00:31:35;82.32;;;26.00;;
46551;SDS011;32278;51.810;4.712;2024-02-04T00:34:01;78.55;;;24.50;;
46551;SDS011;32278;51.810;4.712;2024-02-04T00:36:28;82.07;;;25.85;;
46551;SDS011;32278;51.810;4.712;2024-02-04T00:38:54;78.38;;;23.77;;
46551;SDS011;32278;51.810;4.712;2024-02-04T00:41:20;64.68;;;23.13;;
46551;SDS011;32278;51.810;4.712;2024-02-04T00:43:46;78.28;;;23.60;;
46551;SDS011;32278;51.810;4.712;2024-02-04T00:46:12;86.22;;;24.65;;
46551;SDS011;32278;51.810;4.712;2024-02-04T00:48:38;76.05;;;23.95;;
46551;SDS011;32278;51.810;4.712;2024-02-04T00:51:05;84.03;;;26.30;;
46551;SDS011;32278;51.810;4.712;2024-02-04T00:53:31;80.82;;;25.17;;
46551;SDS011;32278;51.810;4.712;2024-02-04T00:56:01;70.70;;;25.48;;
46551;SDS011;32278;51.810;4.712;2024-02-04T00:58:27;67.75;;;26.20;;
46551;SDS011;32278;51.810;4.712;2024-02-04T01:00:53;84.32;;;26.95;;
46551;SDS011;32278;51.810;4.712;2024-02-04T01:03:19;78.22;;;23.48;;
46551;SDS011;32278;51.810;4.712;2024-02-04T01:05:45;86.05;;;27.38;;
46551;SDS011;32278;51.810;4.712;2024-02-04T01:08:11;71.05;;;24.30;;
46551;SDS011;32278;51.810;4.712;2024-02-04T01:10:37;87.85;;;25.48;;
46551;SDS011;32278;51.810;4.712;2024-02-04T01:13:06;68.60;;;21.33;;
46551;SDS011;32278;51.810;4.712;2024-02-04T01:15:32;74.30;;;25.48;;
46551;SDS011;32278;51.810;4.712;2024-02-04T01:17:58;81.55;;;28.02;;
46551;SDS011;32278;51.810;4.712;2024-02-04T01:20:24;81.70;;;25.48;;
46551;SDS011;32278;51.810;4.712;2024-02-04T01:22:50;84.10;;;25.00;;
46551;SDS011;32278;51.810;4.712;2024-02-04T01:25:16;77.47;;;23.90;;
46551;SDS011;32278;51.810;4.712;2024-02-04T01:27:42;74.88;;;23.25;;
46551;SDS011;32278;51.810;4.712;2024-02-04T01:30:08;77.18;;;23.38;;
46551;SDS011;32278;51.810;4.712;2024-02-04T01:32:34;85.60;;;24.33;;
46551;SDS011;32278;51.810;4.712;2024-02-04T01:35:00;84.00;;;25.55;;
46551;SDS011;32278;51.810;4.712;2024-02-04T01:37:26;74.45;;;22.73;;
46551;SDS011;32278;51.810;4.712;2024-02-04T01:39:52;87.82;;;23.00;;
46551;SDS011;32278;51.810;4.712;2024-02-04T01:42:18;81.53;;;23.35;;
46551;SDS011;32278;51.810;4.712;2024-02-04T01:44:44;79.80;;;21.90;;
46551;SDS011;32278;51.810;4.712;2024-02-04T01:47:10;73.45;;;20.75;;
46551;SDS011;32278;51.810;4.712;2024-02-04T01:49:36;74.95;;;21.30;;
46551;SDS011;32278;51.810;4.712;2024-02-04T01:52:03;77.13;;;21.25;;
46551;SDS011;32278;51.810;4.712;2024-02-04T01:54:29;75.38;;;21.33;;
46551;SDS011;32278;51.810;4.712;2024-02-04T01:56:56;76.22;;;21.83;;
46551;SDS011;32278;51.810;4.712;2024-02-04T01:59:23;68.35;;;20.70;;
46551;SDS011;32278;51.810;4.712;2024-02-04T02:01:55;71.97;;;21.07;;
46551;SDS011;32278;51.810;4.712;2024-02-04T02:04:21;66.95;;;20.58;;
46551;SDS011;32278;51.810;4.712;2024-02-04T02:06:47;66.85;;;21.35;;
46551;SDS011;32278;51.810;4.712;2024-02-04T02:09:13;62.35;;;20.45;;
46551;SDS011;32278;51.810;4.712;2024-02-04T02:11:41;73.53;;;21.67;;
46551;SDS011;32278;51.810;4.712;2024-02-04T02:14:08;71.00;;;19.60;;
46551;SDS011;32278;51.810;4.712;2024-02-04T02:16:36;67.38;;;19.67;;
46551;SDS011;32278;51.810;4.712;2024-02-04T02:21:56;65.65;;;19.27;;
46551;SDS011;32278;51.810;4.712;2024-02-04T02:24:29;62.92;;;18.10;;
46551;SDS011;32278;51.810;4.712;2024-02-04T02:26:56;65.22;;;18.30;;
46551;SDS011;32278;51.810;4.712;2024-02-04T02:29:23;65.00;;;18.55;;
46551;SDS011;32278;51.810;4.712;2024-02-04T02:31:49;57.47;;;16.17;;
46551;SDS011;32278;51.810;4.712;2024-02-04T02:34:16;68.72;;;17.65;;
46551;SDS011;32278;51.810;4.712;2024-02-04T02:39:32;63.75;;;16.92;;
46551;SDS011;32278;51.810;4.712;2024-02-04T02:42:00;50.17;;;15.23;;
46551;SDS011;32278;51.810;4.712;2024-02-04T02:44:27;59.80;;;16.77;;
46551;SDS011;32278;51.810;4.712;2024-02-04T02:46:54;59.10;;;15.45;;
46551;SDS011;32278;51.810;4.712;2024-02-04T02:49:21;49.03;;;14.98;;
46551;SDS011;32278;51.810;4.712;2024-02-04T02:51:47;47.92;;;14.30;;
46551;SDS011;32278;51.810;4.712;2024-02-04T02:54:13;52.85;;;15.32;;
46551;SDS011;32278;51.810;4.712;2024-02-04T02:56:39;42.95;;;15.05;;
46551;SDS011;32278;51.810;4.712;2024-02-04T02:59:05;59.30;;;16.60;;
46551;SDS011;32278;51.810;4.712;2024-02-04T03:01:31;45.42;;;15.85;;
46551;SDS011;32278;51.810;4.712;2024-02-04T03:03:57;51.53;;;15.80;;
46551;SDS011;32278;51.810;4.712;2024-02-04T03:06:23;51.60;;;16.73;;
46551;SDS011;32278;51.810;4.712;2024-02-04T03:08:49;53.70;;;16.45;;
46551;SDS011;32278;51.810;4.712;2024-02-04T03:11:15;45.72;;;15.88;;
46551;SDS011;32278;51.810;4.712;2024-02-04T03:13:41;57.60;;;18.95;;
46551;SDS011;32278;51.810;4.712;2024-02-04T03:16:11;59.08;;;16.98;;
46551;SDS011;32278;51.810;4.712;2024-02-04T03:18:40;51.10;;;16.92;;
46551;SDS011;32278;51.810;4.712;2024-02-04T03:21:15;52.30;;;17.85;;
46551;SDS011;32278;51.810;4.712;2024-02-04T03:23:42;46.78;;;15.57;;
46551;SDS011;32278;51.810;4.712;2024-02-04T03:26:09;58.42;;;18.80;;
46551;SDS011;32278;51.810;4.712;2024-02-04T03:28:35;49.90;;;17.48;;
46551;SDS011;32278;51.810;4.712;2024-02-04T03:31:01;55.55;;;18.95;;
46551;SDS011;32278;51.810;4.712;2024-02-04T03:33:27;53.95;;;17.90;;
46551;SDS011;32278;51.810;4.712;2024-02-04T03:35:53;54.50;;;16.98;;
46551;SDS011;32278;51.810;4.712;2024-02-04T03:38:19;54.33;;;18.30;;
46551;SDS011;32278;51.810;4.712;2024-02-04T03:40:45;52.80;;;17.48;;
46551;SDS011;32278;51.810;4.712;2024-02-04T03:43:13;48.38;;;15.98;;
46551;SDS011;32278;51.810;4.712;2024-02-04T03:45:39;46.35;;;16.63;;
46551;SDS011;32278;51.810;4.712;2024-02-04T03:48:05;47.45;;;16.20;;
46551;SDS011;32278;51.810;4.712;2024-02-04T03:50:31;50.30;;;16.80;;
46551;SDS011;32278;51.810;4.712;2024-02-04T03:52:57;48.92;;;15.07;;
46551;SDS011;32278;51.810;4.712;2024-02-04T03:55:23;47.05;;;16.17;;
46551;SDS011;32278;51.810;4.712;2024-02-04T03:57:50;51.03;;;16.10;;
46551;SDS011;32278;51.810;4.712;2024-02-04T04:00:16;46.75;;;16.00;;
46551;SDS011;32278;51.810;4.712;2024-02-04T04:02:42;46.40;;;15.73;;
46551;SDS011;32278;51.810;4.712;2024-02-04T04:05:11;39.72;;;15.48;;
46551;SDS011;32278;51.810;4.712;2024-02-04T04:07:40;48.50;;;16.63;;
46551;SDS011;32278;51.810;4.712;2024-02-04T04:10:06;57.05;;;16.45;;
46551;SDS011;32278;51.810;4.712;2024-02-04T04:12:32;47.70;;;15.52;;
46551;SDS011;32278;51.810;4.712;2024-02-04T04:14:58;46.28;;;15.50;;
46551;SDS011;32278;51.810;4.712;2024-02-04T04:17:24;52.28;;;16.85;;
46551;SDS011;32278;51.810;4.712;2024-02-04T04:19:50;55.67;;;17.50;;
46551;SDS011;32278;51.810;4.712;2024-02-04T04:22:16;52.40;;;16.80;;
46551;SDS011;32278;51.810;4.712;2024-02-04T04:24:42;50.53;;;16.17;;
46551;SDS011;32278;51.810;4.712;2024-02-04T04:27:08;60.22;;;17.80;;
46551;SDS011;32278;51.810;4.712;2024-02-04T04:29:35;40.45;;;15.73;;
46551;SDS011;32278;51.810;4.712;2024-02-04T04:32:01;50.22;;;18.40;;
46551;SDS011;32278;51.810;4.712;2024-02-04T04:34:27;46.60;;;16.83;;
46551;SDS011;32278;51.810;4.712;2024-02-04T04:36:53;42.40;;;15.93;;
46551;SDS011;32278;51.810;4.712;2024-02-04T04:39:18;40.15;;;16.23;;
46551;SDS011;32278;51.810;4.712;2024-02-04T04:41:44;45.28;;;14.90;;
46551;SDS011;32278;51.810;4.712;2024-02-04T04:44:11;45.28;;;15.98;;
46551;SDS011;32278;51.810;4.712;2024-02-04T04:46:40;58.97;;;17.60;;
46551;SDS011;32278;51.810;4.712;2024-02-04T04:49:06;46.85;;;15.55;;
46551;SDS011;32278;51.810;4.712;2024-02-04T04:51:32;46.92;;;16.95;;
46551;SDS011;32278;51.810;4.712;2024-02-04T04:53:58;53.88;;;16.98;;
46551;SDS011;32278;51.810;4.712;2024-02-04T04:56:24;49.25;;;16.00;;
46551;SDS011;32278;51.810;4.712;2024-02-04T04:58:50;55.75;;;17.17;;
46551;SDS011;32278;51.810;4.712;2024-02-04T05:01:16;54.10;;;17.33;;
46551;SDS011;32278;51.810;4.712;2024-02-04T05:03:44;45.10;;;16.17;;
46551;SDS011;32278;51.810;4.712;2024-02-04T05:06:10;45.83;;;16.23;;
46551;SDS011;32278;51.810;4.712;2024-02-04T05:08:36;53.15;;;17.58;;
46551;SDS011;32278;51.810;4.712;2024-02-04T05:11:02;47.15;;;16.88;;
46551;SDS011;32278;51.810;4.712;2024-02-04T05:13:28;44.17;;;16.08;;
46551;SDS011;32278;51.810;4.712;2024-02-04T05:15:54;52.80;;;16.75;;
46551;SDS011;32278;51.810;4.712;2024-02-04T05:18:20;48.45;;;16.48;;
46551;SDS011;32278;51.810;4.712;2024-02-04T05:20:47;50.60;;;16.67;;
46551;SDS011;32278;51.810;4.712;2024-02-04T05:23:13;41.35;;;14.57;;
46551;SDS011;32278;51.810;4.712;2024-02-04T05:25:39;47.25;;;15.45;;
46551;SDS011;32278;51.810;4.712;2024-02-04T05:28:06;38.50;;;15.70;;
46551;SDS011;32278;51.810;4.712;2024-02-04T05:30:32;47.50;;;16.50;;
46551;SDS011;32278;51.810;4.712;2024-02-04T05:32:58;43.55;;;16.73;;
46551;SDS011;32278;51.810;4.712;2024-02-04T05:35:24;44.58;;;17.40;;
46551;SDS011;32278;51.810;4.712;2024-02-04T05:37:50;45.75;;;16.23;;
46551;SDS011;32278;51.810;4.712;2024-02-04T05:40:16;42.38;;;15.38;;
46551;SDS011;32278;51.810;4.712;2024-02-04T05:42:44;37.50;;;14.95;;
46551;SDS011;32278;51.810;4.712;2024-02-04T05:45:10;40.00;;;14.18;;
46551;SDS011;32278;51.810;4.712;2024-02-04T05:47:36;42.85;;;15.13;;
46551;SDS011;32278;51.810;4.712;2024-02-04T05:50:02;37.88;;;13.70;;
46551;SDS011;32278;51.810;4.712;2024-02-04T05:52:28;40.80;;;15.23;;
46551;SDS011;32278;51.810;4.712;2024-02-04T05:54:54;38.55;;;14.57;;
46551;SDS011;32278;51.810;4.712;2024-02-04T05:57:20;38.55;;;15.65;;
46551;SDS011;32278;51.810;4.712;2024-02-04T05:59:45;40.30;;;13.52;;
46551;SDS011;32278;51.810;4.712;2024-02-04T06:02:13;39.65;;;14.93;;
46551;SDS011;32278;51.810;4.712;2024-02-04T06:04:39;42.53;;;14.98;;
46551;SDS011;32278;51.810;4.712;2024-02-04T06:07:05;39.75;;;14.13;;
46551;SDS011;32278;51.810;4.712;2024-02-04T06:09:34;41.15;;;14.20;;
46551;SDS011;32278;51.810;4.712;2024-02-04T06:12:01;33.88;;;12.35;;
46551;SDS011;32278;51.810;4.712;2024-02-04T06:14:27;34.80;;;13.43;;
46551;SDS011;32278;51.810;4.712;2024-02-04T06:16:53;39.20;;;13.90;;
46551;SDS011;32278;51.810;4.712;2024-02-04T06:19:19;41.17;;;14.43;;
46551;SDS011;32278;51.810;4.712;2024-02-04T06:21:45;38.83;;;13.80;;
46551;SDS011;32278;51.810;4.712;2024-02-04T06:24:11;49.00;;;14.68;;
46551;SDS011;32278;51.810;4.712;2024-02-04T06:26:38;50.08;;;13.43;;
46551;SDS011;32278;51.810;4.712;2024-02-04T06:29:04;40.10;;;13.68;;
46551;SDS011;32278;51.810;4.712;2024-02-04T06:31:30;45.92;;;13.75;;
46551;SDS011;32278;51.810;4.712;2024-02-04T06:33:56;49.97;;;14.02;;
46551;SDS011;32278;51.810;4.712;2024-02-04T06:36:22;43.13;;;13.00;;
46551;SDS011;32278;51.810;4.712;2024-02-04T06:38:48;42.83;;;13.18;;
46551;SDS011;32278;51.810;4.712;2024-02-04T06:41:14;49.15;;;13.77;;
46551;SDS011;32278;51.810;4.712;2024-02-04T06:43:40;46.65;;;13.95;;
46551;SDS011;32278;51.810;4.712;2024-02-04T06:46:06;44.35;;;13.52;;
46551;SDS011;32278;51.810;4.712;2024-02-04T06:48:32;43.60;;;14.10;;
46551;SDS011;32278;51.810;4.712;2024-02-04T06:50:58;49.47;;;13.85;;
46551;SDS011;32278;51.810;4.712;2024-02-04T06:53:24;47.63;;;13.57;;
46551;SDS011;32278;51.810;4.712;2024-02-04T06:55:50;45.28;;;14.70;;
46551;SDS011;32278;51.810;4.712;2024-02-04T06:58:16;43.38;;;16.15;;
46551;SDS011;32278;51.810;4.712;2024-02-04T07:00:42;42.67;;;13.55;;
46551;SDS011;32278;51.810;4.712;2024-02-04T07:03:08;40.03;;;14.25;;
46551;SDS011;32278;51.810;4.712;2024-02-04T07:05:34;40.22;;;13.20;;
46551;SDS011;32278;51.810;4.712;2024-02-04T07:08:00;34.38;;;13.23;;
46551;SDS011;32278;51.810;4.712;2024-02-04T07:10:26;35.83;;;13.02;;
46551;SDS011;32278;51.810;4.712;2024-02-04T07:12:52;34.75;;;12.43;;
46551;SDS011;32278;51.810;4.712;2024-02-04T07:15:18;32.08;;;12.13;;
46551;SDS011;32278;51.810;4.712;2024-02-04T07:17:44;37.90;;;12.57;;
46551;SDS011;32278;51.810;4.712;2024-02-04T07:20:10;33.50;;;12.07;;
46551;SDS011;32278;51.810;4.712;2024-02-04T07:22:36;36.05;;;11.80;;
46551;SDS011;32278;51.810;4.712;2024-02-04T07:25:02;40.00;;;13.48;;
46551;SDS011;32278;51.810;4.712;2024-02-04T07:27:28;32.97;;;11.10;;
46551;SDS011;32278;51.810;4.712;2024-02-04T07:29:54;28.90;;;11.48;;
46551;SDS011;32278;51.810;4.712;2024-02-04T07:32:22;34.97;;;10.48;;
46551;SDS011;32278;51.810;4.712;2024-02-04T07:34:48;29.50;;;10.88;;
46551;SDS011;32278;51.810;4.712;2024-02-04T07:37:14;30.02;;;10.98;;
46551;SDS011;32278;51.810;4.712;2024-02-04T07:39:42;25.15;;;10.18;;
46551;SDS011;32278;51.810;4.712;2024-02-04T07:42:08;28.73;;;10.07;;
46551;SDS011;32278;51.810;4.712;2024-02-04T07:44:34;24.75;;;9.40;;
46551;SDS011;32278;51.810;4.712;2024-02-04T07:47:00;30.10;;;9.30;;
46551;SDS011;32278;51.810;4.712;2024-02-04T07:49:26;28.23;;;8.75;;
46551;SDS011;32278;51.810;4.712;2024-02-04T07:51:52;21.17;;;8.95;;
46551;SDS011;32278;51.810;4.712;2024-02-04T07:54:18;30.95;;;8.20;;
46551;SDS011;32278;51.810;4.712;2024-02-04T07:56:44;24.25;;;7.93;;
46551;SDS011;32278;51.810;4.712;2024-02-04T07:59:10;24.48;;;8.85;;
46551;SDS011;32278;51.810;4.712;2024-02-04T08:01:36;23.90;;;7.22;;
46551;SDS011;32278;51.810;4.712;2024-02-04T08:04:02;21.83;;;7.43;;
46551;SDS011;32278;51.810;4.712;2024-02-04T08:06:30;23.23;;;7.20;;
46551;SDS011;32278;51.810;4.712;2024-02-04T08:08:59;25.50;;;8.32;;
46551;SDS011;32278;51.810;4.712;2024-02-04T08:11:25;19.65;;;7.30;;
46551;SDS011;32278;51.810;4.712;2024-02-04T08:13:51;25.20;;;7.18;;
46551;SDS011;32278;51.810;4.712;2024-02-04T08:16:17;23.10;;;6.82;;
46551;SDS011;32278;51.810;4.712;2024-02-04T08:18:43;21.10;;;6.70;;
46551;SDS011;32278;51.810;4.712;2024-02-04T08:21:09;16.08;;;6.30;;
46551;SDS011;32278;51.810;4.712;2024-02-04T08:23:35;20.85;;;6.05;;
46551;SDS011;32278;51.810;4.712;2024-02-04T08:26:01;17.15;;;6.50;;
46551;SDS011;32278;51.810;4.712;2024-02-04T08:28:27;23.52;;;6.30;;
46551;SDS011;32278;51.810;4.712;2024-02-04T08:30:53;19.60;;;6.65;;
46551;SDS011;32278;51.810;4.712;2024-02-04T08:33:19;18.35;;;6.78;;
46551;SDS011;32278;51.810;4.712;2024-02-04T08:35:46;15.98;;;5.32;;
46551;SDS011;32278;51.810;4.712;2024-02-04T08:38:12;20.60;;;5.60;;
46551;SDS011;32278;51.810;4.712;2024-02-04T08:40:37;18.42;;;5.90;;
46551;SDS011;32278;51.810;4.712;2024-02-04T08:43:03;14.75;;;5.07;;
46551;SDS011;32278;51.810;4.712;2024-02-04T08:45:29;16.45;;;5.07;;
46551;SDS011;32278;51.810;4.712;2024-02-04T08:47:55;21.20;;;4.95;;
46551;SDS011;32278;51.810;4.712;2024-02-04T08:50:21;17.75;;;5.00;;
46551;SDS011;32278;51.810;4.712;2024-02-04T08:52:47;14.32;;;4.45;;
46551;SDS011;32278;51.810;4.712;2024-02-04T08:55:13;15.52;;;4.68;;
46551;SDS011;32278;51.810;4.712;2024-02-04T08:57:39;20.90;;;5.57;;
46551;SDS011;32278;51.810;4.712;2024-02-04T09:00:05;19.75;;;4.50;;
46551;SDS011;32278;51.810;4.712;2024-02-04T09:02:34;12.02;;;4.45;;
46551;SDS011;32278;51.810;4.712;2024-02-04T09:05:00;17.38;;;4.60;;
46551;SDS011;32278;51.810;4.712;2024-02-04T09:07:26;18.67;;;4.55;;
46551;SDS011;32278;51.810;4.712;2024-02-04T09:09:52;19.40;;;5.38;;
46551;SDS011;32278;51.810;4.712;2024-02-04T09:12:18;19.17;;;5.10;;
46551;SDS011;32278;51.810;4.712;2024-02-04T09:14:44;19.30;;;4.88;;
46551;SDS011;32278;51.810;4.712;2024-02-04T09:17:10;22.52;;;5.45;;
46551;SDS011;32278;51.810;4.712;2024-02-04T09:19:38;26.92;;;4.97;;
46551;SDS011;32278;51.810;4.712;2024-02-04T09:22:04;29.27;;;5.78;;
46551;SDS011;32278;51.810;4.712;2024-02-04T09:24:30;19.75;;;5.15;;
46551;SDS011;32278;51.810;4.712;2024-02-04T09:26:56;23.67;;;5.85;;
46551;SDS011;32278;51.810;4.712;2024-02-04T09:29:22;22.30;;;5.65;;
46551;SDS011;32278;51.810;4.712;2024-02-04T09:31:48;19.88;;;5.25;;
46551;SDS011;32278;51.810;4.712;2024-02-04T09:34:16;26.15;;;5.78;;
46551;SDS011;32278;51.810;4.712;2024-02-04T09:36:43;28.33;;;7.38;;
46551;SDS011;32278;51.810;4.712;2024-02-04T09:39:09;26.35;;;6.32;;
46551;SDS011;32278;51.810;4.712;2024-02-04T09:41:35;29.00;;;6.85;;
46551;SDS011;32278;51.810;4.712;2024-02-04T09:44:01;23.10;;;6.78;;
46551;SDS011;32278;51.810;4.712;2024-02-04T09:46:31;36.47;;;7.15;;
46551;SDS011;32278;51.810;4.712;2024-02-04T09:48:57;27.70;;;6.85;;
46551;SDS011;32278;51.810;4.712;2024-02-04T09:51:25;24.73;;;5.82;;
46551;SDS011;32278;51.810;4.712;2024-02-04T09:53:52;24.38;;;6.30;;
46551;SDS011;32278;51.810;4.712;2024-02-04T09:56:20;23.88;;;6.03;;
46551;SDS011;32278;51.810;4.712;2024-02-04T09:58:47;30.10;;;6.78;;
46551;SDS011;32278;51.810;4.712;2024-02-04T10:01:17;21.45;;;5.82;;
46551;SDS011;32278;51.810;4.712;2024-02-04T10:03:43;25.02;;;6.25;;
46551;SDS011;32278;51.810;4.712;2024-02-04T10:06:09;29.52;;;7.30;;
46551;SDS011;32278;51.810;4.712;2024-02-04T10:08:35;24.20;;;6.15;;
46551;SDS011;32278;51.810;4.712;2024-02-04T10:11:02;26.48;;;6.50;;
46551;SDS011;32278;51.810;4.712;2024-02-04T10:13:28;22.85;;;6.32;;
46551;SDS011;32278;51.810;4.712;2024-02-04T10:15:54;27.65;;;6.00;;
46551;SDS011;32278;51.810;4.712;2024-02-04T10:18:21;24.10;;;6.30;;
46551;SDS011;32278;51.810;4.712;2024-02-04T10:20:47;28.40;;;6.72;;
46551;SDS011;32278;51.810;4.712;2024-02-04T10:23:14;26.27;;;6.53;;
46551;SDS011;32278;51.810;4.712;2024-02-04T10:25:40;21.73;;;5.53;;
46551;SDS011;32278;51.810;4.712;2024-02-04T10:28:06;27.23;;;5.45;;
46551;SDS011;32278;51.810;4.712;2024-02-04T10:30:32;25.30;;;5.57;;
46551;SDS011;32278;51.810;4.712;2024-02-04T10:32:59;31.88;;;5.82;;
46551;SDS011;32278;51.810;4.712;2024-02-04T10:35:25;20.40;;;5.30;;
46551;SDS011;32278;51.810;4.712;2024-02-04T10:37:51;23.58;;;4.75;;
46551;SDS011;32278;51.810;4.712;2024-02-04T10:40:17;24.15;;;4.97;;
46551;SDS011;32278;51.810;4.712;2024-02-04T10:42:43;27.00;;;6.28;;
46551;SDS011;32278;51.810;4.712;2024-02-04T10:45:10;27.05;;;6.03;;
46551;SDS011;32278;51.810;4.712;2024-02-04T10:47:39;28.63;;;5.50;;
46551;SDS011;32278;51.810;4.712;2024-02-04T10:50:06;22.88;;;5.03;;
46551;SDS011;32278;51.810;4.712;2024-02-04T10:52:35;21.80;;;5.10;;
46551;SDS011;32278;51.810;4.712;2024-02-04T10:55:03;22.17;;;5.22;;
46551;SDS011;32278;51.810;4.712;2024-02-04T10:57:31;26.63;;;5.13;;
46551;SDS011;32278;51.810;4.712;2024-02-04T10:59:57;27.42;;;5.07;;
46551;SDS011;32278;51.810;4.712;2024-02-04T11:02:25;25.02;;;5.78;;
46551;SDS011;32278;51.810;4.712;2024-02-04T11:04:51;31.33;;;5.70;;
46551;SDS011;32278;51.810;4.712;2024-02-04T11:07:19;24.17;;;5.30;;
46551;SDS011;32278;51.810;4.712;2024-02-04T11:09:46;24.00;;;5.53;;
46551;SDS011;32278;51.810;4.712;2024-02-04T11:12:16;32.42;;;6.00;;
46551;SDS011;32278;51.810;4.712;2024-02-04T11:14:42;21.40;;;5.57;;
46551;SDS011;32278;51.810;4.712;2024-02-04T11:20:03;30.10;;;5.63;;
46551;SDS011;32278;51.810;4.712;2024-02-04T11:22:40;21.13;;;5.25;;
46551;SDS011;32278;51.810;4.712;2024-02-04T11:27:51;18.83;;;4.80;;
46551;SDS011;32278;51.810;4.712;2024-02-04T11:30:17;21.27;;;4.55;;
46551;SDS011;32278;51.810;4.712;2024-02-04T11:32:44;17.92;;;5.35;;
46551;SDS011;32278;51.810;4.712;2024-02-04T11:35:11;23.80;;;4.53;;
46551;SDS011;32278;51.810;4.712;2024-02-04T11:37:38;21.90;;;4.90;;
46551;SDS011;32278;51.810;4.712;2024-02-04T11:40:07;22.52;;;4.97;;
46551;SDS011;32278;51.810;4.712;2024-02-04T11:42:33;17.67;;;4.20;;
46551;SDS011;32278;51.810;4.712;2024-02-04T11:45:12;16.73;;;4.15;;
46551;SDS011;32278;51.810;4.712;2024-02-04T11:47:38;19.45;;;5.10;;
46551;SDS011;32278;51.810;4.712;2024-02-04T11:50:05;24.27;;;5.45;;
46551;SDS011;32278;51.810;4.712;2024-02-04T11:52:31;23.00;;;5.15;;
46551;SDS011;32278;51.810;4.712;2024-02-04T11:54:57;25.08;;;5.30;;
46551;SDS011;32278;51.810;4.712;2024-02-04T11:57:23;21.60;;;5.45;;
46551;SDS011;32278;51.810;4.712;2024-02-04T11:59:53;27.20;;;5.82;;
46551;SDS011;32278;51.810;4.712;2024-02-04T12:02:20;23.42;;;5.82;;
46551;SDS011;32278;51.810;4.712;2024-02-04T12:04:46;24.55;;;5.22;;
46551;SDS011;32278;51.810;4.712;2024-02-04T12:07:13;20.35;;;5.72;;
46551;SDS011;32278;51.810;4.712;2024-02-04T12:09:40;26.27;;;6.68;;
46551;SDS011;32278;51.810;4.712;2024-02-04T12:12:06;24.33;;;5.50;;
46551;SDS011;32278;51.810;4.712;2024-02-04T12:14:34;24.15;;;4.68;;
46551;SDS011;32278;51.810;4.712;2024-02-04T12:17:06;23.63;;;5.82;;
46551;SDS011;32278;51.810;4.712;2024-02-04T12:19:33;32.08;;;5.60;;
46551;SDS011;32278;51.810;4.712;2024-02-04T12:21:59;25.75;;;5.82;;
46551;SDS011;32278;51.810;4.712;2024-02-04T12:24:25;19.83;;;5.57;;
46551;SDS011;32278;51.810;4.712;2024-02-04T12:26:51;22.17;;;4.95;;
46551;SDS011;32278;51.810;4.712;2024-02-04T12:29:17;22.27;;;5.50;;
46551;SDS011;32278;51.810;4.712;2024-02-04T12:31:43;27.20;;;6.05;;
46551;SDS011;32278;51.810;4.712;2024-02-04T12:34:10;17.20;;;5.55;;
46551;SDS011;32278;51.810;4.712;2024-02-04T12:36:37;17.65;;;4.47;;
46551;SDS011;32278;51.810;4.712;2024-02-04T12:39:03;21.52;;;4.57;;
46551;SDS011;32278;51.810;4.712;2024-02-04T12:41:29;22.40;;;5.40;;
46551;SDS011;32278;51.810;4.712;2024-02-04T12:43:56;22.23;;;5.53;;
46551;SDS011;32278;51.810;4.712;2024-02-04T12:46:23;22.50;;;5.20;;
46551;SDS011;32278;51.810;4.712;2024-02-04T12:48:56;21.52;;;5.15;;
46551;SDS011;32278;51.810;4.712;2024-02-04T12:51:26;23.10;;;5.22;;
46551;SDS011;32278;51.810;4.712;2024-02-04T12:54:08;25.27;;;4.53;;
46551;SDS011;32278;51.810;4.712;2024-02-04T12:56:42;19.33;;;4.30;;
46551;SDS011;32278;51.810;4.712;2024-02-04T12:59:09;16.10;;;4.35;;
46551;SDS011;32278;51.810;4.712;2024-02-04T13:01:38;14.63;;;4.25;;
46551;SDS011;32278;51.810;4.712;2024-02-04T13:04:04;24.15;;;4.72;;
46551;SDS011;32278;51.810;4.712;2024-02-04T13:06:30;16.45;;;3.75;;
46551;SDS011;32278;51.810;4.712;2024-02-04T13:08:57;19.23;;;4.90;;
46551;SDS011;32278;51.810;4.712;2024-02-04T13:11:23;24.13;;;5.00;;
46551;SDS011;32278;51.810;4.712;2024-02-04T13:13:50;19.48;;;4.20;;
46551;SDS011;32278;51.810;4.712;2024-02-04T13:16:16;18.33;;;5.05;;
46551;SDS011;32278;51.810;4.712;2024-02-04T13:18:44;19.27;;;3.83;;
46551;SDS011;32278;51.810;4.712;2024-02-04T13:21:10;16.33;;;4.10;;
46551;SDS011;32278;51.810;4.712;2024-02-04T13:23:36;13.40;;;4.47;;
46551;SDS011;32278;51.810;4.712;2024-02-04T13:26:02;19.80;;;4.75;;
46551;SDS011;32278;51.810;4.712;2024-02-04T13:28:28;15.63;;;3.83;;
46551;SDS011;32278;51.810;4.712;2024-02-04T13:30:54;15.82;;;4.55;;
46551;SDS011;32278;51.810;4.712;2024-02-04T13:33:21;18.58;;;4.38;;
46551;SDS011;32278;51.810;4.712;2024-02-04T13:35:47;17.48;;;3.97;;
46551;SDS011;32278;51.810;4.712;2024-02-04T13:38:15;15.40;;;3.72;;
46551;SDS011;32278;51.810;4.712;2024-02-04T13:40:41;15.60;;;3.75;;
46551;SDS011;32278;51.810;4.712;2024-02-04T13:43:07;24.30;;;5.07;;
46551;SDS011;32278;51.810;4.712;2024-02-04T13:45:33;11.63;;;3.45;;
46551;SDS011;32278;51.810;4.712;2024-02-04T13:47:59;17.73;;;4.55;;
46551;SDS011;32278;51.810;4.712;2024-02-04T13:50:25;22.58;;;5.25;;
46551;SDS011;32278;51.810;4.712;2024-02-04T13:52:51;25.35;;;5.13;;
46551;SDS011;32278;51.810;4.712;2024-02-04T13:55:17;20.67;;;4.68;;
46551;SDS011;32278;51.810;4.712;2024-02-04T13:57:43;19.52;;;4.68;;
46551;SDS011;32278;51.810;4.712;2024-02-04T14:00:09;20.42;;;4.90;;
46551;SDS011;32278;51.810;4.712;2024-02-04T14:02:35;19.92;;;4.55;;
46551;SDS011;32278;51.810;4.712;2024-02-04T14:05:03;20.45;;;5.18;;
46551;SDS011;32278;51.810;4.712;2024-02-04T14:07:29;22.42;;;5.25;;
46551;SDS011;32278;51.810;4.712;2024-02-04T14:09:55;22.40;;;4.43;;
46551;SDS011;32278;51.810;4.712;2024-02-04T14:12:21;26.23;;;5.22;;
46551;SDS011;32278;51.810;4.712;2024-02-04T14:14:47;23.48;;;4.78;;
46551;SDS011;32278;51.810;4.712;2024-02-04T14:17:13;32.33;;;5.72;;
46551;SDS011;32278;51.810;4.712;2024-02-04T14:19:39;15.07;;;4.82;;
46551;SDS011;32278;51.810;4.712;2024-02-04T14:22:05;23.30;;;5.18;;
46551;SDS011;32278;51.810;4.712;2024-02-04T14:24:31;23.50;;;4.85;;
46551;SDS011;32278;51.810;4.712;2024-02-04T14:27:00;27.67;;;5.57;;
46551;SDS011;32278;51.810;4.712;2024-02-04T14:29:26;19.67;;;5.55;;
46551;SDS011;32278;51.810;4.712;2024-02-04T14:31:52;21.10;;;4.57;;
46551;SDS011;32278;51.810;4.712;2024-02-04T14:34:18;23.15;;;4.95;;
46551;SDS011;32278;51.810;4.712;2024-02-04T14:36:44;38.67;;;5.45;;